sensor_id;sensor_type;location;lat;lon;timestamp;P1;durP1;ratioP1;P2;durP2;ratioP2
43048;SDS011;28673;44.412;11.918;2023-05-14T00:02:22;18.10;;;7.38;;
43048;SDS011;28673;44.412;11.918;2023-05-14T00:04:47;11.15;;;7.13;;
43048;SDS011;28673;44.412;11.918;2023-05-14T00:07:13;8.93;;;7.20;;
43048;SDS011;28673;44.412;11.918;2023-05-14T00:09:39;9.15;;;6.93;;
43048;SDS011;28673;44.412;11.918;2023-05-14T00:12:05;11.85;;;7.07;;
43048;SDS011;28673;44.412;11.918;2023-05-14T00:14:31;9.52;;;7.70;;
43048;SDS011;28673;44.412;11.918;2023-05-14T00:16:57;11.48;;;7.13;;
43048;SDS011;28673;44.412;11.918;2023-05-14T00:19:24;16.02;;;8.57;;
43048;SDS011;28673;44.412;11.918;2023-05-14T00:21:50;13.10;;;7.32;;
43048;SDS011;28673;44.412;11.918;2023-05-14T00:24:15;10.90;;;7.55;;
43048;SDS011;28673;44.412;11.918;2023-05-14T00:26:41;10.55;;;7.35;;
43048;SDS011;28673;44.412;11.918;2023-05-14T00:29:07;9.73;;;7.47;;
43048;SDS011;28673;44.412;11.918;2023-05-14T00:31:33;9.20;;;8.15;;
43048;SDS011;28673;44.412;11.918;2023-05-14T00:34:01;12.32;;;7.93;;
43048;SDS011;28673;44.412;11.918;2023-05-14T00:36:27;11.38;;;8.20;;
43048;SDS011;28673;44.412;11.918;2023-05-14T00:38:53;8.00;;;7.18;;
43048;SDS011;28673;44.412;11.918;2023-05-14T00:41:18;10.90;;;7.32;;
43048;SDS011;28673;44.412;11.918;2023-05-14T00:43:45;12.13;;;7.78;;
43048;SDS011;28673;44.412;11.918;2023-05-14T00:46:10;11.30;;;7.50;;
43048;SDS011;28673;44.412;11.918;2023-05-14T00:48:36;11.82;;;7.78;;
43048;SDS011;28673;44.412;11.918;2023-05-14T00:51:02;17.88;;;8.30;;
43048;SDS011;28673;44.412;11.918;2023-05-14T00:53:28;11.40;;;8.73;;
43048;SDS011;28673;44.412;11.918;2023-05-14T00:55:54;10.10;;;8.00;;
43048;SDS011;28673;44.412;11.918;2023-05-14T00:58:20;9.20;;;7.25;;
43048;SDS011;28673;44.412;11.918;2023-05-14T01:00:47;11.02;;;7.10;;
43048;SDS011;28673;44.412;11.918;2023-05-14T01:03:13;7.97;;;7.03;;
43048;SDS011;28673;44.412;11.918;2023-05-14T01:05:46;9.48;;;6.38;;
43048;SDS011;28673;44.412;11.918;2023-05-14T01:16:53;13.85;;;9.23;;
43048;SDS011;28673;44.412;11.918;2023-05-14T01:19:43;16.85;;;10.57;;
43048;SDS011;28673;44.412;11.918;2023-05-14T01:22:09;19.88;;;9.43;;
43048;SDS011;28673;44.412;11.918;2023-05-14T01:24:35;14.48;;;9.70;;
43048;SDS011;28673;44.412;11.918;2023-05-14T01:29:37;13.73;;;9.73;;
43048;SDS011;28673;44.412;11.918;2023-05-14T01:32:07;13.23;;;9.48;;
43048;SDS011;28673;44.412;11.918;2023-05-14T01:34:35;12.75;;;9.77;;
43048;SDS011;28673;44.412;11.918;2023-05-14T01:37:02;14.15;;;9.20;;
43048;SDS011;28673;44.412;11.918;2023-05-14T01:39:29;15.60;;;9.85;;
43048;SDS011;28673;44.412;11.918;2023-05-14T01:41:56;14.25;;;9.48;;
43048;SDS011;28673;44.412;11.918;2023-05-14T01:44:24;13.98;;;9.43;;
43048;SDS011;28673;44.412;11.918;2023-05-14T01:46:50;20.88;;;10.32;;
43048;SDS011;28673;44.412;11.918;2023-05-14T01:49:16;11.93;;;8.80;;
43048;SDS011;28673;44.412;11.918;2023-05-14T01:51:42;15.00;;;9.38;;
43048;SDS011;28673;44.412;11.918;2023-05-14T01:54:08;13.45;;;8.55;;
43048;SDS011;28673;44.412;11.918;2023-05-14T01:56:34;19.08;;;10.45;;
43048;SDS011;28673;44.412;11.918;2023-05-14T01:59:00;15.63;;;9.45;;
43048;SDS011;28673;44.412;11.918;2023-05-14T02:01:26;17.55;;;9.95;;
43048;SDS011;28673;44.412;11.918;2023-05-14T02:03:52;13.98;;;8.88;;
43048;SDS011;28673;44.412;11.918;2023-05-14T02:06:18;21.33;;;9.63;;
43048;SDS011;28673;44.412;11.918;2023-05-14T02:08:43;14.20;;;9.80;;
43048;SDS011;28673;44.412;11.918;2023-05-14T02:11:09;12.43;;;9.82;;
43048;SDS011;28673;44.412;11.918;2023-05-14T02:13:35;14.48;;;9.98;;
43048;SDS011;28673;44.412;11.918;2023-05-14T02:16:01;14.38;;;9.02;;
43048;SDS011;28673;44.412;11.918;2023-05-14T02:18:27;16.67;;;10.15;;
43048;SDS011;28673;44.412;11.918;2023-05-14T02:20:52;16.48;;;10.07;;
43048;SDS011;28673;44.412;11.918;2023-05-14T02:23:18;15.90;;;10.00;;
43048;SDS011;28673;44.412;11.918;2023-05-14T02:25:44;16.95;;;9.82;;
43048;SDS011;28673;44.412;11.918;2023-05-14T02:28:10;12.05;;;8.32;;
43048;SDS011;28673;44.412;11.918;2023-05-14T02:30:39;8.57;;;5.75;;
43048;SDS011;28673;44.412;11.918;2023-05-14T02:33:05;9.05;;;4.85;;
43048;SDS011;28673;44.412;11.918;2023-05-14T02:35:31;5.60;;;4.03;;
43048;SDS011;28673;44.412;11.918;2023-05-14T02:38:00;5.45;;;4.10;;
43048;SDS011;28673;44.412;11.918;2023-05-14T02:40:32;7.47;;;4.47;;
43048;SDS011;28673;44.412;11.918;2023-05-14T02:43:00;3.15;;;2.85;;
43048;SDS011;28673;44.412;11.918;2023-05-14T02:45:26;2.97;;;2.53;;
43048;SDS011;28673;44.412;11.918;2023-05-14T02:47:56;4.32;;;2.70;;
43048;SDS011;28673;44.412;11.918;2023-05-14T02:50:28;3.92;;;2.58;;
43048;SDS011;28673;44.412;11.918;2023-05-14T02:53:04;6.95;;;2.83;;
43048;SDS011;28673;44.412;11.918;2023-05-14T02:55:33;3.15;;;2.42;;
43048;SDS011;28673;44.412;11.918;2023-05-14T02:58:00;4.07;;;2.22;;
43048;SDS011;28673;44.412;11.918;2023-05-14T03:00:28;5.63;;;3.58;;
43048;SDS011;28673;44.412;11.918;2023-05-14T03:02:54;4.47;;;2.70;;
43048;SDS011;28673;44.412;11.918;2023-05-14T03:05:23;3.88;;;2.35;;
43048;SDS011;28673;44.412;11.918;2023-05-14T03:07:52;5.90;;;1.95;;
43048;SDS011;28673;44.412;11.918;2023-05-14T03:10:19;3.13;;;2.25;;
43048;SDS011;28673;44.412;11.918;2023-05-14T03:12:45;2.65;;;2.45;;
43048;SDS011;28673;44.412;11.918;2023-05-14T03:15:11;5.72;;;2.15;;
43048;SDS011;28673;44.412;11.918;2023-05-14T03:17:40;3.83;;;2.33;;
43048;SDS011;28673;44.412;11.918;2023-05-14T03:20:14;4.88;;;2.78;;
43048;SDS011;28673;44.412;11.918;2023-05-14T03:22:43;6.05;;;2.17;;
43048;SDS011;28673;44.412;11.918;2023-05-14T03:25:09;3.92;;;2.50;;
43048;SDS011;28673;44.412;11.918;2023-05-14T03:27:35;3.97;;;2.75;;
43048;SDS011;28673;44.412;11.918;2023-05-14T03:30:09;4.07;;;2.35;;
43048;SDS011;28673;44.412;11.918;2023-05-14T03:32:36;3.28;;;2.20;;
43048;SDS011;28673;44.412;11.918;2023-05-14T03:35:05;3.92;;;3.08;;
43048;SDS011;28673;44.412;11.918;2023-05-14T03:37:32;4.28;;;2.85;;
43048;SDS011;28673;44.412;11.918;2023-05-14T03:39:58;3.83;;;2.20;;
43048;SDS011;28673;44.412;11.918;2023-05-14T03:42:26;4.18;;;2.30;;
43048;SDS011;28673;44.412;11.918;2023-05-14T03:44:58;6.13;;;2.92;;
43048;SDS011;28673;44.412;11.918;2023-05-14T03:47:24;3.53;;;2.60;;
43048;SDS011;28673;44.412;11.918;2023-05-14T03:49:55;2.30;;;2.03;;
43048;SDS011;28673;44.412;11.918;2023-05-14T03:52:21;9.15;;;2.78;;
43048;SDS011;28673;44.412;11.918;2023-05-14T03:54:53;4.05;;;2.78;;
43048;SDS011;28673;44.412;11.918;2023-05-14T03:57:22;3.95;;;2.33;;
43048;SDS011;28673;44.412;11.918;2023-05-14T03:59:51;2.60;;;2.40;;
43048;SDS011;28673;44.412;11.918;2023-05-14T04:02:18;3.28;;;2.72;;
43048;SDS011;28673;44.412;11.918;2023-05-14T04:04:48;2.85;;;2.30;;
43048;SDS011;28673;44.412;11.918;2023-05-14T04:07:18;6.43;;;2.92;;
43048;SDS011;28673;44.412;11.918;2023-05-14T04:09:47;3.53;;;2.60;;
43048;SDS011;28673;44.412;11.918;2023-05-14T04:12:13;5.60;;;3.17;;
43048;SDS011;28673;44.412;11.918;2023-05-14T04:14:39;3.30;;;2.97;;
43048;SDS011;28673;44.412;11.918;2023-05-14T04:17:05;4.78;;;3.00;;
43048;SDS011;28673;44.412;11.918;2023-05-14T04:19:30;3.97;;;3.15;;
43048;SDS011;28673;44.412;11.918;2023-05-14T04:21:56;3.63;;;2.85;;
43048;SDS011;28673;44.412;11.918;2023-05-14T04:24:22;13.85;;;3.88;;
43048;SDS011;28673;44.412;11.918;2023-05-14T04:26:48;6.82;;;3.42;;
43048;SDS011;28673;44.412;11.918;2023-05-14T04:29:13;11.07;;;3.15;;
43048;SDS011;28673;44.412;11.918;2023-05-14T04:31:39;4.25;;;3.40;;
43048;SDS011;28673;44.412;11.918;2023-05-14T04:34:06;3.95;;;3.55;;
43048;SDS011;28673;44.412;11.918;2023-05-14T04:36:32;8.60;;;4.03;;
43048;SDS011;28673;44.412;11.918;2023-05-14T04:38:57;6.28;;;3.75;;
43048;SDS011;28673;44.412;11.918;2023-05-14T04:41:23;6.50;;;4.05;;
43048;SDS011;28673;44.412;11.918;2023-05-14T04:43:49;5.95;;;3.38;;
43048;SDS011;28673;44.412;11.918;2023-05-14T04:46:15;9.30;;;3.97;;
43048;SDS011;28673;44.412;11.918;2023-05-14T04:48:41;10.55;;;4.18;;
43048;SDS011;28673;44.412;11.918;2023-05-14T04:51:07;4.35;;;3.78;;
43048;SDS011;28673;44.412;11.918;2023-05-14T04:53:32;5.07;;;4.38;;
43048;SDS011;28673;44.412;11.918;2023-05-14T04:55:58;7.60;;;4.47;;
43048;SDS011;28673;44.412;11.918;2023-05-14T04:58:24;7.35;;;4.97;;
43048;SDS011;28673;44.412;11.918;2023-05-14T05:00:53;11.77;;;4.55;;
43048;SDS011;28673;44.412;11.918;2023-05-14T05:03:18;7.85;;;4.70;;
43048;SDS011;28673;44.412;11.918;2023-05-14T05:05:44;7.22;;;4.60;;
43048;SDS011;28673;44.412;11.918;2023-05-14T05:08:10;6.22;;;4.53;;
43048;SDS011;28673;44.412;11.918;2023-05-14T05:10:36;6.40;;;5.13;;
43048;SDS011;28673;44.412;11.918;2023-05-14T05:13:01;7.95;;;5.30;;
43048;SDS011;28673;44.412;11.918;2023-05-14T05:15:27;8.88;;;4.70;;
43048;SDS011;28673;44.412;11.918;2023-05-14T05:17:53;7.63;;;5.28;;
43048;SDS011;28673;44.412;11.918;2023-05-14T05:20:19;7.60;;;5.30;;
43048;SDS011;28673;44.412;11.918;2023-05-14T05:22:45;9.02;;;6.22;;
43048;SDS011;28673;44.412;11.918;2023-05-14T05:25:10;12.95;;;6.57;;
43048;SDS011;28673;44.412;11.918;2023-05-14T05:27:37;12.55;;;6.18;;
43048;SDS011;28673;44.412;11.918;2023-05-14T05:30:03;6.05;;;4.20;;
43048;SDS011;28673;44.412;11.918;2023-05-14T05:32:29;8.23;;;4.80;;
43048;SDS011;28673;44.412;11.918;2023-05-14T05:34:55;4.75;;;3.15;;
43048;SDS011;28673;44.412;11.918;2023-05-14T05:37:21;5.75;;;2.70;;
43048;SDS011;28673;44.412;11.918;2023-05-14T05:39:47;4.07;;;3.15;;
43048;SDS011;28673;44.412;11.918;2023-05-14T05:42:13;4.60;;;2.85;;
43048;SDS011;28673;44.412;11.918;2023-05-14T05:44:39;4.50;;;2.60;;
43048;SDS011;28673;44.412;11.918;2023-05-14T05:47:05;4.80;;;2.92;;
43048;SDS011;28673;44.412;11.918;2023-05-14T05:49:31;4.07;;;2.60;;
43048;SDS011;28673;44.412;11.918;2023-05-14T05:51:57;4.82;;;2.78;;
43048;SDS011;28673;44.412;11.918;2023-05-14T05:54:23;3.70;;;3.00;;
43048;SDS011;28673;44.412;11.918;2023-05-14T05:56:51;4.35;;;2.75;;
43048;SDS011;28673;44.412;11.918;2023-05-14T05:59:17;3.20;;;2.80;;
43048;SDS011;28673;44.412;11.918;2023-05-14T06:01:43;3.75;;;3.30;;
43048;SDS011;28673;44.412;11.918;2023-05-14T06:04:09;3.88;;;3.13;;
43048;SDS011;28673;44.412;11.918;2023-05-14T06:06:35;7.07;;;3.25;;
43048;SDS011;28673;44.412;11.918;2023-05-14T06:09:01;8.35;;;3.47;;
43048;SDS011;28673;44.412;11.918;2023-05-14T06:11:27;6.95;;;3.75;;
43048;SDS011;28673;44.412;11.918;2023-05-14T06:13:53;9.00;;;4.47;;
43048;SDS011;28673;44.412;11.918;2023-05-14T06:16:18;4.90;;;4.40;;
43048;SDS011;28673;44.412;11.918;2023-05-14T06:18:45;6.43;;;4.53;;
43048;SDS011;28673;44.412;11.918;2023-05-14T06:21:11;5.53;;;4.40;;
43048;SDS011;28673;44.412;11.918;2023-05-14T06:23:36;10.45;;;5.40;;
43048;SDS011;28673;44.412;11.918;2023-05-14T06:26:02;8.63;;;5.65;;
43048;SDS011;28673;44.412;11.918;2023-05-14T06:28:28;7.90;;;5.40;;
43048;SDS011;28673;44.412;11.918;2023-05-14T06:30:54;8.27;;;6.25;;
43048;SDS011;28673;44.412;11.918;2023-05-14T06:33:20;8.30;;;6.18;;
43048;SDS011;28673;44.412;11.918;2023-05-14T06:35:53;13.68;;;8.02;;
43048;SDS011;28673;44.412;11.918;2023-05-14T06:38:19;12.90;;;7.40;;
43048;SDS011;28673;44.412;11.918;2023-05-14T06:40:45;9.25;;;6.63;;
43048;SDS011;28673;44.412;11.918;2023-05-14T06:43:11;11.18;;;6.75;;
43048;SDS011;28673;44.412;11.918;2023-05-14T06:45:37;10.82;;;8.32;;
43048;SDS011;28673;44.412;11.918;2023-05-14T06:48:03;13.43;;;7.95;;
43048;SDS011;28673;44.412;11.918;2023-05-14T06:50:29;23.27;;;8.98;;
43048;SDS011;28673;44.412;11.918;2023-05-14T06:52:55;9.57;;;7.93;;
43048;SDS011;28673;44.412;11.918;2023-05-14T06:55:20;13.48;;;8.25;;
43048;SDS011;28673;44.412;11.918;2023-05-14T06:57:46;13.63;;;7.95;;
43048;SDS011;28673;44.412;11.918;2023-05-14T07:00:12;13.93;;;8.00;;
43048;SDS011;28673;44.412;11.918;2023-05-14T07:02:39;15.20;;;7.68;;
43048;SDS011;28673;44.412;11.918;2023-05-14T07:05:05;11.38;;;7.28;;
43048;SDS011;28673;44.412;11.918;2023-05-14T07:07:32;9.07;;;6.65;;
43048;SDS011;28673;44.412;11.918;2023-05-14T07:09:58;10.75;;;7.18;;
43048;SDS011;28673;44.412;11.918;2023-05-14T07:12:24;9.25;;;6.85;;
43048;SDS011;28673;44.412;11.918;2023-05-14T07:14:51;10.88;;;6.95;;
43048;SDS011;28673;44.412;11.918;2023-05-14T07:17:17;8.77;;;6.40;;
43048;SDS011;28673;44.412;11.918;2023-05-14T07:19:43;9.00;;;5.78;;
43048;SDS011;28673;44.412;11.918;2023-05-14T07:22:09;10.07;;;6.20;;
43048;SDS011;28673;44.412;11.918;2023-05-14T07:24:34;7.70;;;6.15;;
43048;SDS011;28673;44.412;11.918;2023-05-14T07:27:00;10.93;;;6.03;;
43048;SDS011;28673;44.412;11.918;2023-05-14T07:29:26;12.80;;;5.15;;
43048;SDS011;28673;44.412;11.918;2023-05-14T07:31:54;7.60;;;5.38;;
43048;SDS011;28673;44.412;11.918;2023-05-14T07:34:20;9.95;;;6.13;;
43048;SDS011;28673;44.412;11.918;2023-05-14T07:36:45;8.40;;;4.60;;
43048;SDS011;28673;44.412;11.918;2023-05-14T07:39:11;8.55;;;3.92;;
43048;SDS011;28673;44.412;11.918;2023-05-14T07:41:37;6.65;;;4.05;;
43048;SDS011;28673;44.412;11.918;2023-05-14T07:44:03;5.68;;;3.47;;
43048;SDS011;28673;44.412;11.918;2023-05-14T07:46:29;3.67;;;3.33;;
43048;SDS011;28673;44.412;11.918;2023-05-14T07:48:55;7.35;;;3.42;;
43048;SDS011;28673;44.412;11.918;2023-05-14T07:51:21;3.88;;;3.13;;
43048;SDS011;28673;44.412;11.918;2023-05-14T07:53:47;4.90;;;3.05;;
43048;SDS011;28673;44.412;11.918;2023-05-14T07:56:13;4.13;;;2.58;;
43048;SDS011;28673;44.412;11.918;2023-05-14T07:58:39;5.95;;;2.72;;
43048;SDS011;28673;44.412;11.918;2023-05-14T08:01:05;15.00;;;3.03;;
43048;SDS011;28673;44.412;11.918;2023-05-14T08:03:33;3.88;;;2.72;;
43048;SDS011;28673;44.412;11.918;2023-05-14T08:05:59;4.80;;;2.58;;
43048;SDS011;28673;44.412;11.918;2023-05-14T08:08:25;4.47;;;2.92;;
43048;SDS011;28673;44.412;11.918;2023-05-14T08:10:51;5.70;;;3.13;;
43048;SDS011;28673;44.412;11.918;2023-05-14T08:13:17;7.15;;;2.97;;
43048;SDS011;28673;44.412;11.918;2023-05-14T08:15:43;7.57;;;3.58;;
43048;SDS011;28673;44.412;11.918;2023-05-14T08:18:09;4.00;;;2.63;;
43048;SDS011;28673;44.412;11.918;2023-05-14T08:20:35;6.75;;;2.80;;
43048;SDS011;28673;44.412;11.918;2023-05-14T08:23:01;6.68;;;3.00;;
43048;SDS011;28673;44.412;11.918;2023-05-14T08:25:27;6.05;;;3.53;;
43048;SDS011;28673;44.412;11.918;2023-05-14T08:27:53;6.90;;;3.15;;
43048;SDS011;28673;44.412;11.918;2023-05-14T08:30:19;8.57;;;3.30;;
43048;SDS011;28673;44.412;11.918;2023-05-14T08:32:46;5.97;;;2.80;;
43048;SDS011;28673;44.412;11.918;2023-05-14T08:35:13;5.82;;;2.78;;
43048;SDS011;28673;44.412;11.918;2023-05-14T08:37:39;3.08;;;2.50;;
43048;SDS011;28673;44.412;11.918;2023-05-14T08:40:05;6.25;;;3.15;;
43048;SDS011;28673;44.412;11.918;2023-05-14T08:42:32;3.67;;;2.65;;
43048;SDS011;28673;44.412;11.918;2023-05-14T08:45:02;7.22;;;2.63;;
43048;SDS011;28673;44.412;11.918;2023-05-14T08:47:30;7.28;;;4.03;;
43048;SDS011;28673;44.412;11.918;2023-05-14T08:50:05;7.25;;;3.50;;
43048;SDS011;28673;44.412;11.918;2023-05-14T08:52:33;4.88;;;2.80;;
43048;SDS011;28673;44.412;11.918;2023-05-14T08:54:59;7.63;;;2.90;;
43048;SDS011;28673;44.412;11.918;2023-05-14T08:57:29;4.93;;;2.50;;
43048;SDS011;28673;44.412;11.918;2023-05-14T08:59:56;5.68;;;2.55;;
43048;SDS011;28673;44.412;11.918;2023-05-14T09:02:23;4.53;;;2.78;;
43048;SDS011;28673;44.412;11.918;2023-05-14T09:04:55;9.18;;;3.80;;
43048;SDS011;28673;44.412;11.918;2023-05-14T09:07:22;12.77;;;4.90;;
43048;SDS011;28673;44.412;11.918;2023-05-14T09:09:49;5.95;;;3.15;;
43048;SDS011;28673;44.412;11.918;2023-05-14T09:12:16;5.60;;;2.63;;
43048;SDS011;28673;44.412;11.918;2023-05-14T09:14:42;4.28;;;2.20;;
43048;SDS011;28673;44.412;11.918;2023-05-14T09:17:08;3.05;;;2.15;;
43048;SDS011;28673;44.412;11.918;2023-05-14T09:19:39;3.80;;;2.30;;
43048;SDS011;28673;44.412;11.918;2023-05-14T09:22:10;6.80;;;2.47;;
43048;SDS011;28673;44.412;11.918;2023-05-14T09:24:37;5.85;;;3.65;;
43048;SDS011;28673;44.412;11.918;2023-05-14T09:27:04;2.92;;;1.80;;
43048;SDS011;28673;44.412;11.918;2023-05-14T09:29:31;3.45;;;2.03;;
43048;SDS011;28673;44.412;11.918;2023-05-14T09:31:57;6.28;;;2.40;;
43048;SDS011;28673;44.412;11.918;2023-05-14T09:34:25;3.60;;;1.60;;
43048;SDS011;28673;44.412;11.918;2023-05-14T09:36:56;3.65;;;1.98;;
43048;SDS011;28673;44.412;11.918;2023-05-14T09:39:23;2.95;;;1.90;;
43048;SDS011;28673;44.412;11.918;2023-05-14T09:41:49;4.30;;;2.03;;
43048;SDS011;28673;44.412;11.918;2023-05-14T09:44:16;3.53;;;1.58;;
43048;SDS011;28673;44.412;11.918;2023-05-14T09:46:42;4.10;;;1.80;;
43048;SDS011;28673;44.412;11.918;2023-05-14T09:49:09;5.60;;;3.05;;
43048;SDS011;28673;44.412;11.918;2023-05-14T09:51:36;3.10;;;2.40;;
43048;SDS011;28673;44.412;11.918;2023-05-14T09:54:05;4.40;;;1.88;;
43048;SDS011;28673;44.412;11.918;2023-05-14T09:56:31;7.30;;;2.45;;
43048;SDS011;28673;44.412;11.918;2023-05-14T09:58:58;5.90;;;1.80;;
43048;SDS011;28673;44.412;11.918;2023-05-14T10:01:24;5.75;;;2.20;;
43048;SDS011;28673;44.412;11.918;2023-05-14T10:03:52;2.28;;;2.08;;
43048;SDS011;28673;44.412;11.918;2023-05-14T10:06:23;3.20;;;2.42;;
43048;SDS011;28673;44.412;11.918;2023-05-14T10:08:53;5.82;;;2.63;;
43048;SDS011;28673;44.412;11.918;2023-05-14T10:11:27;4.97;;;2.42;;
43048;SDS011;28673;44.412;11.918;2023-05-14T10:14:02;5.32;;;2.63;;
43048;SDS011;28673;44.412;11.918;2023-05-14T10:16:32;6.72;;;2.70;;
43048;SDS011;28673;44.412;11.918;2023-05-14T10:19:00;4.30;;;2.33;;
43048;SDS011;28673;44.412;11.918;2023-05-14T10:21:33;4.40;;;2.30;;
43048;SDS011;28673;44.412;11.918;2023-05-14T10:24:02;2.40;;;2.20;;
43048;SDS011;28673;44.412;11.918;2023-05-14T10:26:29;5.75;;;2.45;;
43048;SDS011;28673;44.412;11.918;2023-05-14T10:28:57;2.55;;;2.35;;
43048;SDS011;28673;44.412;11.918;2023-05-14T10:37:09;3.40;;;2.33;;
43048;SDS011;28673;44.412;11.918;2023-05-14T10:39:42;2.92;;;2.40;;
43048;SDS011;28673;44.412;11.918;2023-05-14T10:42:16;4.20;;;2.30;;
43048;SDS011;28673;44.412;11.918;2023-05-14T10:44:47;3.10;;;2.00;;
43048;SDS011;28673;44.412;11.918;2023-05-14T10:47:15;3.58;;;2.00;;
43048;SDS011;28673;44.412;11.918;2023-05-14T10:49:42;2.60;;;1.95;;
43048;SDS011;28673;44.412;11.918;2023-05-14T10:52:10;4.05;;;2.20;;
43048;SDS011;28673;44.412;11.918;2023-05-14T10:54:36;4.05;;;2.35;;
43048;SDS011;28673;44.412;11.918;2023-05-14T10:57:02;4.28;;;3.25;;
43048;SDS011;28673;44.412;11.918;2023-05-14T10:59:28;3.50;;;2.50;;
43048;SDS011;28673;44.412;11.918;2023-05-14T11:01:57;7.03;;;2.33;;
43048;SDS011;28673;44.412;11.918;2023-05-14T11:04:23;7.00;;;2.30;;
43048;SDS011;28673;44.412;11.918;2023-05-14T11:06:49;4.38;;;2.83;;
43048;SDS011;28673;44.412;11.918;2023-05-14T11:09:17;3.15;;;2.25;;
43048;SDS011;28673;44.412;11.918;2023-05-14T11:11:46;2.92;;;2.13;;
43048;SDS011;28673;44.412;11.918;2023-05-14T11:14:12;5.35;;;2.78;;
43048;SDS011;28673;44.412;11.918;2023-05-14T11:16:38;4.95;;;3.38;;
43048;SDS011;28673;44.412;11.918;2023-05-14T11:19:05;5.65;;;2.78;;
43048;SDS011;28673;44.412;11.918;2023-05-14T11:21:31;4.00;;;2.25;;
43048;SDS011;28673;44.412;11.918;2023-05-14T11:24:00;2.92;;;2.28;;
43048;SDS011;28673;44.412;11.918;2023-05-14T11:26:27;5.18;;;2.70;;
43048;SDS011;28673;44.412;11.918;2023-05-14T11:28:53;5.63;;;2.70;;
43048;SDS011;28673;44.412;11.918;2023-05-14T11:31:20;5.28;;;2.85;;
43048;SDS011;28673;44.412;11.918;2023-05-14T11:33:46;3.95;;;2.35;;
43048;SDS011;28673;44.412;11.918;2023-05-14T11:36:12;7.15;;;3.00;;
43048;SDS011;28673;44.412;11.918;2023-05-14T11:38:45;4.10;;;2.50;;
43048;SDS011;28673;44.412;11.918;2023-05-14T11:41:16;5.78;;;2.75;;
43048;SDS011;28673;44.412;11.918;2023-05-14T11:43:45;3.10;;;2.80;;
43048;SDS011;28673;44.412;11.918;2023-05-14T11:46:17;6.55;;;3.40;;
43048;SDS011;28673;44.412;11.918;2023-05-14T11:48:43;9.77;;;3.33;;
43048;SDS011;28673;44.412;11.918;2023-05-14T11:51:09;8.45;;;4.18;;
43048;SDS011;28673;44.412;11.918;2023-05-14T11:53:35;12.85;;;4.28;;
43048;SDS011;28673;44.412;11.918;2023-05-14T11:56:01;6.18;;;4.07;;
43048;SDS011;28673;44.412;11.918;2023-05-14T11:58:30;6.07;;;3.05;;
43048;SDS011;28673;44.412;11.918;2023-05-14T12:00:57;6.00;;;3.58;;
43048;SDS011;28673;44.412;11.918;2023-05-14T12:03:23;5.63;;;3.72;;
43048;SDS011;28673;44.412;11.918;2023-05-14T12:05:56;7.63;;;3.83;;
43048;SDS011;28673;44.412;11.918;2023-05-14T12:08:26;5.13;;;3.17;;
43048;SDS011;28673;44.412;11.918;2023-05-14T12:10:59;3.40;;;3.10;;
43048;SDS011;28673;44.412;11.918;2023-05-14T12:13:25;3.03;;;2.78;;
43048;SDS011;28673;44.412;11.918;2023-05-14T12:15:53;3.95;;;3.55;;
43048;SDS011;28673;44.412;11.918;2023-05-14T12:18:20;3.90;;;2.95;;
43048;SDS011;28673;44.412;11.918;2023-05-14T12:20:47;3.58;;;2.88;;
43048;SDS011;28673;44.412;11.918;2023-05-14T12:23:13;5.70;;;3.38;;
43048;SDS011;28673;44.412;11.918;2023-05-14T12:25:44;2.85;;;2.55;;
43048;SDS011;28673;44.412;11.918;2023-05-14T12:28:15;2.80;;;2.53;;
43048;SDS011;28673;44.412;11.918;2023-05-14T12:30:41;2.40;;;2.20;;
43048;SDS011;28673;44.412;11.918;2023-05-14T12:33:07;3.65;;;2.20;;
43048;SDS011;28673;44.412;11.918;2023-05-14T12:35:33;2.92;;;1.80;;
43048;SDS011;28673;44.412;11.918;2023-05-14T12:38:01;2.67;;;2.30;;
43048;SDS011;28673;44.412;11.918;2023-05-14T12:40:27;4.28;;;2.20;;
43048;SDS011;28673;44.412;11.918;2023-05-14T12:42:53;5.22;;;2.10;;
43048;SDS011;28673;44.412;11.918;2023-05-14T12:45:19;4.22;;;2.90;;
43048;SDS011;28673;44.412;11.918;2023-05-14T12:47:45;2.65;;;1.73;;
43048;SDS011;28673;44.412;11.918;2023-05-14T12:50:11;2.70;;;2.28;;
43048;SDS011;28673;44.412;11.918;2023-05-14T12:52:37;2.53;;;1.65;;
43048;SDS011;28673;44.412;11.918;2023-05-14T12:55:03;1.90;;;1.70;;
43048;SDS011;28673;44.412;11.918;2023-05-14T12:57:29;3.05;;;1.90;;
43048;SDS011;28673;44.412;11.918;2023-05-14T12:59:55;3.00;;;1.92;;
43048;SDS011;28673;44.412;11.918;2023-05-14T13:02:21;3.70;;;1.95;;
43048;SDS011;28673;44.412;11.918;2023-05-14T13:04:47;1.75;;;1.63;;
43048;SDS011;28673;44.412;11.918;2023-05-14T13:07:13;3.28;;;1.80;;
43048;SDS011;28673;44.412;11.918;2023-05-14T13:09:39;1.75;;;1.42;;
43048;SDS011;28673;44.412;11.918;2023-05-14T13:12:05;2.20;;;1.92;;
43048;SDS011;28673;44.412;11.918;2023-05-14T13:14:31;1.80;;;1.65;;
43048;SDS011;28673;44.412;11.918;2023-05-14T13:16:58;4.38;;;1.58;;
43048;SDS011;28673;44.412;11.918;2023-05-14T13:19:23;2.90;;;1.88;;
43048;SDS011;28673;44.412;11.918;2023-05-14T13:21:49;2.20;;;1.58;;
43048;SDS011;28673;44.412;11.918;2023-05-14T13:24:15;1.73;;;1.40;;
43048;SDS011;28673;44.412;11.918;2023-05-14T13:26:41;2.50;;;1.85;;
43048;SDS011;28673;44.412;11.918;2023-05-14T13:29:09;1.90;;;1.60;;
43048;SDS011;28673;44.412;11.918;2023-05-14T13:31:35;1.80;;;1.40;;
43048;SDS011;28673;44.412;11.918;2023-05-14T13:34:01;2.13;;;1.67;;
43048;SDS011;28673;44.412;11.918;2023-05-14T13:36:27;2.15;;;1.55;;
43048;SDS011;28673;44.412;11.918;2023-05-14T13:38:53;1.75;;;1.50;;
43048;SDS011;28673;44.412;11.918;2023-05-14T13:41:18;2.40;;;1.50;;
43048;SDS011;28673;44.412;11.918;2023-05-14T13:43:45;1.75;;;1.38;;
43048;SDS011;28673;44.412;11.918;2023-05-14T13:46:11;1.25;;;1.15;;
43048;SDS011;28673;44.412;11.918;2023-05-14T13:48:37;5.15;;;1.45;;
43048;SDS011;28673;44.412;11.918;2023-05-14T13:51:03;1.52;;;1.33;;
43048;SDS011;28673;44.412;11.918;2023-05-14T13:53:29;1.98;;;1.30;;
43048;SDS011;28673;44.412;11.918;2023-05-14T13:55:54;1.67;;;1.35;;
43048;SDS011;28673;44.412;11.918;2023-05-14T13:58:23;2.90;;;1.20;;
43048;SDS011;28673;44.412;11.918;2023-05-14T14:00:50;5.10;;;1.50;;
43048;SDS011;28673;44.412;11.918;2023-05-14T14:03:17;3.03;;;1.63;;
43048;SDS011;28673;44.412;11.918;2023-05-14T14:05:43;1.23;;;1.10;;
43048;SDS011;28673;44.412;11.918;2023-05-14T14:08:08;2.22;;;1.40;;
43048;SDS011;28673;44.412;11.918;2023-05-14T14:10:34;5.22;;;1.65;;
43048;SDS011;28673;44.412;11.918;2023-05-14T14:13:00;1.52;;;1.20;;
43048;SDS011;28673;44.412;11.918;2023-05-14T14:15:26;1.85;;;1.40;;
43048;SDS011;28673;44.412;11.918;2023-05-14T14:17:52;1.30;;;1.20;;
43048;SDS011;28673;44.412;11.918;2023-05-14T14:20:18;1.40;;;1.13;;
43048;SDS011;28673;44.412;11.918;2023-05-14T14:22:44;2.35;;;1.30;;
43048;SDS011;28673;44.412;11.918;2023-05-14T14:25:10;2.13;;;1.20;;
43048;SDS011;28673;44.412;11.918;2023-05-14T14:27:37;1.20;;;1.10;;
43048;SDS011;28673;44.412;11.918;2023-05-14T14:30:07;1.20;;;1.00;;
43048;SDS011;28673;44.412;11.918;2023-05-14T14:32:43;3.22;;;2.45;;
43048;SDS011;28673;44.412;11.918;2023-05-14T14:35:09;1.05;;;0.95;;
43048;SDS011;28673;44.412;11.918;2023-05-14T14:37:36;1.17;;;1.08;;
43048;SDS011;28673;44.412;11.918;2023-05-14T14:40:02;1.70;;;1.17;;
43048;SDS011;28673;44.412;11.918;2023-05-14T14:42:32;1.65;;;1.15;;
43048;SDS011;28673;44.412;11.918;2023-05-14T14:44:58;2.75;;;1.27;;
43048;SDS011;28673;44.412;11.918;2023-05-14T14:47:24;1.25;;;1.15;;